createdAt,value
2022-11-21T00:00:06.384Z,985.54
2022-11-21T00:01:06.365Z,985.53
2022-11-21T00:02:06.426Z,985.41
2022-11-21T00:03:06.345Z,985.42
2022-11-21T00:04:06.371Z,985.48
2022-11-21T00:05:06.325Z,985.48
2022-11-21T00:06:06.339Z,985.39
2022-11-21T00:07:06.332Z,985.44
2022-11-21T00:08:06.319Z,985.48
2022-11-21T00:09:06.291Z,985.58
2022-11-21T00:10:06.278Z,985.52
2022-11-21T00:11:06.256Z,985.47
2022-11-21T00:12:06.250Z,985.41
2022-11-21T00:13:06.276Z,985.51
2022-11-21T00:14:06.219Z,985.47
2022-11-21T00:15:06.214Z,985.53
2022-11-21T00:16:06.203Z,985.45
2022-11-21T00:17:06.193Z,985.48
2022-11-21T00:18:06.175Z,985.44
2022-11-21T00:19:06.213Z,985.49
2022-11-21T00:20:06.146Z,985.52
2022-11-21T00:21:06.209Z,985.48
2022-11-21T00:22:06.134Z,985.43
2022-11-21T00:23:06.126Z,985.56
2022-11-21T00:24:06.115Z,985.66
2022-11-21T00:25:06.134Z,985.54
2022-11-21T00:26:06.076Z,985.61
2022-11-21T00:27:06.079Z,985.52
2022-11-21T00:28:06.057Z,985.51
2022-11-21T00:29:06.058Z,985.46
2022-11-21T00:30:06.046Z,985.48
2022-11-21T00:31:06.056Z,985.52
2022-11-21T00:32:06.041Z,985.52
2022-11-21T00:33:06.027Z,985.52
2022-11-21T00:34:06.007Z,985.44
2022-11-21T00:35:06.076Z,985.46
2022-11-21T00:36:05.996Z,985.50
2022-11-21T00:37:05.963Z,985.49
2022-11-21T00:38:05.963Z,985.49
2022-11-21T00:39:05.956Z,985.43
2022-11-21T00:40:05.918Z,985.54
2022-11-21T00:41:05.908Z,985.48
2022-11-21T00:42:05.929Z,985.55
2022-11-21T00:43:05.889Z,985.48
2022-11-21T00:44:05.868Z,985.49
2022-11-21T00:45:05.879Z,985.45
2022-11-21T00:46:05.848Z,985.44
2022-11-21T00:47:05.858Z,985.49
2022-11-21T00:48:05.852Z,985.46
2022-11-21T00:49:05.819Z,985.45
2022-11-21T00:50:05.807Z,985.42
2022-11-21T00:51:05.804Z,985.50
2022-11-21T00:52:05.787Z,985.52
2022-11-21T00:53:05.851Z,985.51
2022-11-21T00:54:05.760Z,985.47
2022-11-21T00:55:05.794Z,985.56
2022-11-21T00:56:05.759Z,985.48
2022-11-21T00:57:05.743Z,985.46
2022-11-21T00:58:05.719Z,985.44
2022-11-21T00:59:05.771Z,985.57
2022-11-21T01:00:05.703Z,985.53
2022-11-21T01:01:05.811Z,985.47
2022-11-21T01:02:05.662Z,985.44
2022-11-21T01:03:05.660Z,985.45
2022-11-21T01:04:05.687Z,985.50
2022-11-21T01:05:05.658Z,985.43
2022-11-21T01:06:05.650Z,985.54
2022-11-21T01:07:05.674Z,985.42
2022-11-21T01:08:05.611Z,985.45
2022-11-21T01:09:05.599Z,985.58
2022-11-21T01:10:05.627Z,985.43
2022-11-21T01:11:05.574Z,985.44
2022-11-21T01:12:05.572Z,985.48
2022-11-21T01:13:05.575Z,985.43
2022-11-21T01:14:05.541Z,985.45
2022-11-21T01:15:05.523Z,985.42
2022-11-21T01:16:05.576Z,985.40
2022-11-21T01:17:05.501Z,985.29
2022-11-21T01:18:05.522Z,985.35
2022-11-21T01:19:05.476Z,985.32
2022-11-21T01:20:05.483Z,985.32
2022-11-21T01:21:05.453Z,985.36
2022-11-21T01:22:05.490Z,985.42
2022-11-21T01:23:05.441Z,985.35
2022-11-21T01:24:05.437Z,985.40
2022-11-21T01:25:05.419Z,985.37
2022-11-21T01:26:05.415Z,985.34
2022-11-21T01:27:05.382Z,985.39
2022-11-21T01:28:05.414Z,985.37
2022-11-21T01:29:05.383Z,985.36
2022-11-21T01:30:05.374Z,985.33
2022-11-21T01:31:05.348Z,985.23
2022-11-21T01:32:05.327Z,985.28
2022-11-21T01:33:05.344Z,985.26
2022-11-21T01:34:05.331Z,985.30
2022-11-21T01:35:05.304Z,985.36
2022-11-21T01:36:05.285Z,985.24
2022-11-21T01:37:05.281Z,985.32
2022-11-21T01:38:05.256Z,985.33
2022-11-21T01:39:05.280Z,985.28
2022-11-21T01:40:05.247Z,985.28
2022-11-21T01:41:05.242Z,985.09
2022-11-21T01:42:05.221Z,985.29
2022-11-21T01:43:05.208Z,985.32
2022-11-21T01:44:05.266Z,985.32
2022-11-21T01:45:05.247Z,985.31
2022-11-21T01:46:05.166Z,985.35
2022-11-21T01:47:05.261Z,985.22
2022-11-21T01:48:05.155Z,985.21
2022-11-21T01:49:05.145Z,985.30
2022-11-21T01:50:08.141Z,985.28
2022-11-21T01:51:06.155Z,985.29
2022-11-21T01:52:05.097Z,985.29
2022-11-21T01:53:05.087Z,985.27
2022-11-21T01:54:05.074Z,985.20
2022-11-21T01:55:05.139Z,985.15
2022-11-21T01:56:05.102Z,985.23
2022-11-21T01:57:05.100Z,985.23
2022-11-21T01:58:05.062Z,985.18
2022-11-21T01:59:05.028Z,985.19
2022-11-21T02:00:05.021Z,985.20
2022-11-21T02:01:05.121Z,985.30
2022-11-21T02:02:04.999Z,985.19
2022-11-21T02:03:04.988Z,985.28
2022-11-21T02:04:04.974Z,985.33
2022-11-21T02:05:05.020Z,985.34
2022-11-21T02:06:04.949Z,985.20
2022-11-21T02:07:05.025Z,985.30
2022-11-21T02:08:04.959Z,985.30
2022-11-21T02:09:04.928Z,985.32
2022-11-21T02:10:04.892Z,985.10
2022-11-21T02:11:04.895Z,985.29
2022-11-21T02:12:04.907Z,985.30
2022-11-21T02:13:04.879Z,985.36
2022-11-21T02:14:04.869Z,985.36
2022-11-21T02:15:04.842Z,985.38
2022-11-21T02:16:04.830Z,985.38
2022-11-21T02:17:04.823Z,985.41
2022-11-21T02:18:04.817Z,985.37
2022-11-21T02:19:04.812Z,985.37
2022-11-21T02:20:04.790Z,985.38
2022-11-21T02:21:04.801Z,985.41
2022-11-21T02:22:04.774Z,985.33
2022-11-21T02:23:04.752Z,985.39
2022-11-21T02:24:04.775Z,985.33
2022-11-21T02:25:04.733Z,985.31
2022-11-21T02:26:04.731Z,985.30
2022-11-21T02:27:04.711Z,985.28
2022-11-21T02:28:04.701Z,985.40
2022-11-21T02:29:04.673Z,985.34
2022-11-21T02:30:04.722Z,985.46
2022-11-21T02:31:04.707Z,985.43
2022-11-21T02:32:04.671Z,985.40
2022-11-21T02:33:04.633Z,985.43
2022-11-21T02:34:04.627Z,985.51
2022-11-21T02:35:04.615Z,985.47
2022-11-21T02:36:04.616Z,985.50
2022-11-21T02:37:04.592Z,985.42
2022-11-21T02:38:04.586Z,985.46
2022-11-21T02:39:04.582Z,985.53
2022-11-21T02:40:04.543Z,985.55
2022-11-21T02:41:04.613Z,985.66
2022-11-21T02:42:04.537Z,985.65
2022-11-21T02:43:04.515Z,985.68
2022-11-21T02:44:04.513Z,985.67
2022-11-21T02:45:04.501Z,985.61
2022-11-21T02:46:04.505Z,985.68
2022-11-21T02:47:04.514Z,985.66
2022-11-21T02:48:04.694Z,985.66
2022-11-21T02:49:04.488Z,985.72
2022-11-21T02:50:04.452Z,985.64
2022-11-21T02:51:04.434Z,985.73
2022-11-21T02:52:04.424Z,985.67
2022-11-21T02:53:04.455Z,985.70
2022-11-21T02:54:04.385Z,985.75
2022-11-21T02:55:04.410Z,985.74
2022-11-21T02:56:04.382Z,985.80
2022-11-21T02:57:04.381Z,985.78
2022-11-21T02:58:05.429Z,985.81
2022-11-21T02:59:04.370Z,985.84
2022-11-21T03:00:04.329Z,985.86
2022-11-21T03:01:04.400Z,985.81
2022-11-21T03:02:04.295Z,985.73
2022-11-21T03:03:04.298Z,985.76
2022-11-21T03:04:04.352Z,985.78
2022-11-21T03:05:04.345Z,985.79
2022-11-21T03:06:04.255Z,985.81
2022-11-21T03:07:04.331Z,985.70
2022-11-21T03:08:04.275Z,985.77
2022-11-21T03:09:04.219Z,985.77
2022-11-21T03:10:04.229Z,985.73
2022-11-21T03:11:04.241Z,985.81
2022-11-21T03:12:04.187Z,985.79
2022-11-21T03:13:04.197Z,985.77
2022-11-21T03:14:04.169Z,985.75
2022-11-21T03:15:04.217Z,985.80
2022-11-21T03:16:04.155Z,985.76
2022-11-21T03:17:04.189Z,985.84
2022-11-21T03:18:04.159Z,985.80
2022-11-21T03:19:04.145Z,985.85
2022-11-21T03:20:04.105Z,985.88
2022-11-21T03:21:04.140Z,985.88
2022-11-21T03:22:04.084Z,985.90
2022-11-21T03:23:04.075Z,985.90
2022-11-21T03:24:04.068Z,985.87
2022-11-21T03:25:04.070Z,985.94
2022-11-21T03:26:04.066Z,985.92
2022-11-21T03:27:04.049Z,985.90
2022-11-21T03:28:04.007Z,985.91
2022-11-21T03:29:03.999Z,985.94
2022-11-21T03:30:03.986Z,985.93
2022-11-21T03:31:03.969Z,985.95
2022-11-21T03:32:03.977Z,986.02
2022-11-21T03:33:03.995Z,985.96
2022-11-21T03:34:03.961Z,986.00
2022-11-21T03:35:03.936Z,986.01
2022-11-21T03:36:03.907Z,985.99
2022-11-21T03:37:03.899Z,985.97
2022-11-21T03:38:03.904Z,986.11
2022-11-21T03:39:03.935Z,986.07
2022-11-21T03:40:03.892Z,986.15
2022-11-21T03:41:03.860Z,986.14
2022-11-21T03:42:03.847Z,986.06
2022-11-21T03:43:03.847Z,986.07
2022-11-21T03:44:03.851Z,986.01
2022-11-21T03:45:03.820Z,986.09
2022-11-21T03:46:03.822Z,986.13
2022-11-21T03:47:03.811Z,986.10
2022-11-21T03:48:03.782Z,986.06
2022-11-21T03:49:03.794Z,986.13
2022-11-21T03:50:03.773Z,986.13
2022-11-21T03:51:03.745Z,986.16
2022-11-21T03:52:03.733Z,986.21
2022-11-21T03:53:03.721Z,986.23
2022-11-21T03:54:03.715Z,986.19
2022-11-21T03:55:03.703Z,986.20
2022-11-21T03:56:03.731Z,986.23
2022-11-21T03:57:03.692Z,986.17
2022-11-21T03:58:03.673Z,986.18
2022-11-21T03:59:03.661Z,986.19
2022-11-21T04:00:03.642Z,986.16
2022-11-21T04:01:03.760Z,986.19
2022-11-21T04:02:03.660Z,986.15
2022-11-21T04:03:03.676Z,986.23
2022-11-21T04:04:03.592Z,986.16
2022-11-21T04:05:03.614Z,986.20
2022-11-21T04:06:03.594Z,986.15
2022-11-21T04:07:03.714Z,986.23
2022-11-21T04:08:03.555Z,986.21
2022-11-21T04:09:03.541Z,986.22
2022-11-21T04:10:03.540Z,986.21
2022-11-21T04:11:03.524Z,986.25
2022-11-21T04:12:07.556Z,986.21
2022-11-21T04:13:03.526Z,986.26
2022-11-21T04:14:03.483Z,986.21
2022-11-21T04:15:04.058Z,986.25
2022-11-21T04:16:03.465Z,986.21
2022-11-21T04:17:03.457Z,986.13
2022-11-21T04:18:03.464Z,986.18
2022-11-21T04:19:03.445Z,986.15
2022-11-21T04:20:03.427Z,986.17
2022-11-21T04:21:03.430Z,986.11
2022-11-21T04:22:03.465Z,986.16
2022-11-21T04:23:03.395Z,986.14
2022-11-21T04:24:03.435Z,986.16
2022-11-21T04:25:03.345Z,986.18
2022-11-21T04:26:03.366Z,986.20
2022-11-21T04:27:03.347Z,986.21
2022-11-21T04:28:03.330Z,986.18
2022-11-21T04:29:03.347Z,986.15
2022-11-21T04:30:03.375Z,986.16
2022-11-21T04:31:07.009Z,986.16
2022-11-21T04:32:04.277Z,986.18
2022-11-21T04:33:03.287Z,986.16
2022-11-21T04:34:03.327Z,986.19
2022-11-21T04:35:03.279Z,986.24
2022-11-21T04:36:03.269Z,986.26
2022-11-21T04:37:06.360Z,986.24
2022-11-21T04:38:04.222Z,986.21
2022-11-21T04:39:03.208Z,986.30
2022-11-21T04:40:03.196Z,986.26
2022-11-21T04:41:03.188Z,986.28
2022-11-21T04:42:03.215Z,986.23
2022-11-21T04:43:03.150Z,986.24
2022-11-21T04:44:03.162Z,986.27
2022-11-21T04:45:03.136Z,986.25
2022-11-21T04:46:03.134Z,986.26
2022-11-21T04:47:05.628Z,986.17
2022-11-21T04:48:03.128Z,986.24
2022-11-21T04:49:03.088Z,986.24
2022-11-21T04:50:03.096Z,986.24
2022-11-21T04:51:03.061Z,986.29
2022-11-21T04:52:03.068Z,986.27
2022-11-21T04:53:03.116Z,986.27
2022-11-21T04:54:03.033Z,986.24
2022-11-21T04:55:03.026Z,986.22
2022-11-21T04:56:03.054Z,986.25
2022-11-21T04:57:02.999Z,986.24
2022-11-21T04:58:02.981Z,986.25
2022-11-21T04:59:03.009Z,986.25
2022-11-21T05:00:02.963Z,986.29
2022-11-21T05:01:03.003Z,986.23
2022-11-21T05:02:02.944Z,986.25
2022-11-21T05:03:02.955Z,986.21
2022-11-21T05:04:02.914Z,986.33
2022-11-21T05:05:02.959Z,986.35
2022-11-21T05:06:02.911Z,986.29
2022-11-21T05:07:02.927Z,986.32
2022-11-21T05:08:02.878Z,986.32
2022-11-21T05:09:02.861Z,986.27
2022-11-21T05:10:02.845Z,986.31
2022-11-21T05:11:02.865Z,986.39
2022-11-21T05:12:02.852Z,986.29
2022-11-21T05:13:02.811Z,986.31
2022-11-21T05:14:02.815Z,986.31
2022-11-21T05:15:02.793Z,986.33
2022-11-21T05:16:02.792Z,986.32
2022-11-21T05:17:02.831Z,986.33
2022-11-21T05:18:02.757Z,986.34
2022-11-21T05:19:02.805Z,986.33
2022-11-21T05:20:02.743Z,986.30
2022-11-21T05:21:02.722Z,986.27
2022-11-21T05:22:02.717Z,986.27
2022-11-21T05:23:02.737Z,986.26
2022-11-21T05:24:02.704Z,986.24
2022-11-21T05:25:02.683Z,986.24
2022-11-21T05:26:02.665Z,986.28
2022-11-21T05:27:02.654Z,986.24
2022-11-21T05:28:02.703Z,986.15
2022-11-21T05:29:02.632Z,986.18
2022-11-21T05:30:02.732Z,986.15
2022-11-21T05:31:02.662Z,986.14
2022-11-21T05:32:02.597Z,986.07
2022-11-21T05:33:02.597Z,986.08
2022-11-21T05:34:02.618Z,986.06
2022-11-21T05:35:02.562Z,986.06
2022-11-21T05:36:02.591Z,986.10
2022-11-21T05:37:02.550Z,986.08
2022-11-21T05:38:02.524Z,986.02
2022-11-21T05:39:02.522Z,986.03
2022-11-21T05:40:02.610Z,986.15
2022-11-21T05:41:02.506Z,986.18
2022-11-21T05:42:03.351Z,986.18
2022-11-21T05:43:02.487Z,986.24
2022-11-21T05:44:02.462Z,986.28
2022-11-21T05:45:02.462Z,986.26
2022-11-21T05:46:02.480Z,986.24
2022-11-21T05:47:02.430Z,986.31
2022-11-21T05:48:02.453Z,986.26
2022-11-21T05:49:02.408Z,986.33
2022-11-21T05:50:02.389Z,986.29
2022-11-21T05:51:02.430Z,986.33
2022-11-21T05:52:02.464Z,986.27
2022-11-21T05:53:02.388Z,986.31
2022-11-21T05:54:02.337Z,986.28
2022-11-21T05:55:02.459Z,986.18
2022-11-21T05:56:02.342Z,986.22
2022-11-21T05:57:02.307Z,986.19
2022-11-21T05:58:02.340Z,986.19
2022-11-21T05:59:02.296Z,986.18
2022-11-21T06:00:02.288Z,986.17
2022-11-21T06:01:02.289Z,986.14
2022-11-21T06:02:02.247Z,986.18
2022-11-21T06:03:02.294Z,986.08
2022-11-21T06:04:02.270Z,986.17
2022-11-21T06:05:02.230Z,986.17
2022-11-21T06:06:02.224Z,986.23
2022-11-21T06:07:02.277Z,986.34
2022-11-21T06:08:02.180Z,986.27
2022-11-21T06:09:02.171Z,986.31
2022-11-21T06:10:02.234Z,986.28
2022-11-21T06:11:02.179Z,986.26
2022-11-21T06:12:02.141Z,986.34
2022-11-21T06:13:02.148Z,986.28
2022-11-21T06:14:02.132Z,986.31
2022-11-21T06:15:02.123Z,986.26
2022-11-21T06:16:02.120Z,986.32
2022-11-21T06:17:02.111Z,986.26
2022-11-21T06:18:02.092Z,986.24
2022-11-21T06:19:02.074Z,986.21
2022-11-21T06:20:02.091Z,986.26
2022-11-21T06:21:02.071Z,986.25
2022-11-21T06:22:02.031Z,986.28
2022-11-21T06:23:02.051Z,986.34
2022-11-21T06:24:02.022Z,986.37
2022-11-21T06:25:02.014Z,986.34
2022-11-21T06:26:02.030Z,986.32
2022-11-21T06:27:01.998Z,986.36
2022-11-21T06:28:01.959Z,986.32
2022-11-21T06:29:01.962Z,986.34
2022-11-21T06:30:01.968Z,986.36
2022-11-21T06:31:01.928Z,986.36
2022-11-21T06:32:02.160Z,986.38
2022-11-21T06:33:02.025Z,986.34
2022-11-21T06:34:01.946Z,986.36
2022-11-21T06:35:01.883Z,986.30
2022-11-21T06:36:01.912Z,986.44
2022-11-21T06:37:01.869Z,986.36
2022-11-21T06:38:01.901Z,986.38
2022-11-21T06:39:01.848Z,986.42
2022-11-21T06:40:01.843Z,986.44
2022-11-21T06:41:01.826Z,986.38
2022-11-21T06:42:01.830Z,986.33
2022-11-21T06:43:01.793Z,986.40
2022-11-21T06:44:01.833Z,986.42
2022-11-21T06:45:01.775Z,986.44
2022-11-21T06:46:01.764Z,986.42
2022-11-21T06:47:01.758Z,986.41
2022-11-21T06:48:01.752Z,986.38
2022-11-21T06:49:01.737Z,986.40
2022-11-21T06:50:01.741Z,986.39
2022-11-21T06:51:01.758Z,986.41
2022-11-21T06:52:01.703Z,986.42
2022-11-21T06:53:01.754Z,986.43
2022-11-21T06:54:01.678Z,986.41
2022-11-21T06:55:01.663Z,986.46
2022-11-21T06:56:01.665Z,986.48
2022-11-21T06:57:01.654Z,986.46
2022-11-21T06:58:01.664Z,986.51
2022-11-21T06:59:01.619Z,986.49
2022-11-21T07:00:01.606Z,986.48
2022-11-21T07:01:01.670Z,986.50
2022-11-21T07:02:01.584Z,986.49
2022-11-21T07:03:03.226Z,986.52
2022-11-21T07:04:01.562Z,986.49
2022-11-21T07:05:01.545Z,986.58
2022-11-21T07:06:01.535Z,986.58
2022-11-21T07:07:01.610Z,986.61
2022-11-21T07:08:01.516Z,986.69
2022-11-21T07:09:32.942Z,986.65
2022-11-21T07:10:02.524Z,986.67
2022-11-21T07:11:24.040Z,986.70
2022-11-21T07:12:02.556Z,986.71
2022-11-21T07:13:01.456Z,986.69
2022-11-21T07:14:04.948Z,986.69
2022-11-21T07:15:02.456Z,986.65
2022-11-21T07:58:06.983Z,986.83
2022-11-21T07:59:07.264Z,986.81
2022-11-21T08:02:49.761Z,986.81
2022-11-21T08:13:25.681Z,986.84
2022-11-21T20:56:09.291Z,978.52
2022-11-21T20:57:14.521Z,978.53
2022-11-21T20:58:10.234Z,978.48
2022-11-21T20:59:09.228Z,978.55
2022-11-21T21:00:09.195Z,978.49
2022-11-21T21:01:09.227Z,978.50
2022-11-21T21:02:09.250Z,978.54
2022-11-21T21:03:09.172Z,978.42
2022-11-21T21:04:09.199Z,978.38
2022-11-21T21:05:09.133Z,978.40
2022-11-21T21:06:09.130Z,978.40
2022-11-21T21:07:09.233Z,978.36
2022-11-21T21:08:09.148Z,978.36
2022-11-21T21:09:09.095Z,978.39
2022-11-21T21:10:09.083Z,978.35
2022-11-21T21:11:25.528Z,978.32
2022-11-21T21:12:10.070Z,978.33
2022-11-21T21:13:09.044Z,978.29
2022-11-21T21:14:09.165Z,978.27
2022-11-21T21:15:09.027Z,978.28
2022-11-21T21:16:09.006Z,978.29
2022-11-21T21:17:09.049Z,978.24
2022-11-21T21:18:08.984Z,978.22
2022-11-21T21:19:08.976Z,978.22
2022-11-21T21:20:08.988Z,978.17
2022-11-21T21:21:16.839Z,978.18
2022-11-21T21:22:09.938Z,978.18
2022-11-21T21:23:08.956Z,978.11
2022-11-21T21:24:08.930Z,978.13
2022-11-21T21:25:08.946Z,978.15
2022-11-21T21:26:08.895Z,978.12
2022-11-21T21:27:08.906Z,978.14
2022-11-21T21:28:08.902Z,978.17
2022-11-21T21:29:08.866Z,978.20
2022-11-21T21:30:08.883Z,978.19
2022-11-21T21:31:08.878Z,978.22
2022-11-21T21:32:08.877Z,978.29
2022-11-21T21:33:08.853Z,978.27
2022-11-21T21:34:08.817Z,978.19
2022-11-21T21:35:08.817Z,978.18
2022-11-21T21:36:08.855Z,978.27
2022-11-21T21:37:09.041Z,978.20
2022-11-21T21:38:09.112Z,978.24
2022-11-21T21:39:08.758Z,978.27
2022-11-21T21:40:08.746Z,978.17
2022-11-21T21:41:08.728Z,978.23
2022-11-21T21:42:08.728Z,978.24
2022-11-21T21:43:08.697Z,978.24
2022-11-21T21:44:08.725Z,978.27
2022-11-21T21:45:08.675Z,978.32
2022-11-21T21:46:08.666Z,978.36
2022-11-21T21:47:08.656Z,978.34
2022-11-21T21:48:08.665Z,978.39
2022-11-21T21:49:08.627Z,978.36
2022-11-21T21:50:12.826Z,978.32
2022-11-21T21:51:09.627Z,978.31
2022-11-21T21:52:08.609Z,978.27
2022-11-21T21:53:08.609Z,978.21
2022-11-21T21:54:08.581Z,978.20
2022-11-21T21:55:08.567Z,978.23
2022-11-21T21:56:08.573Z,978.19
2022-11-21T21:57:09.208Z,978.17
2022-11-21T21:58:08.599Z,978.16
2022-11-21T21:59:08.578Z,978.16
2022-11-21T22:00:08.502Z,978.20
2022-11-21T22:01:08.519Z,978.16
2022-11-21T22:02:08.516Z,978.20
2022-11-21T22:03:08.501Z,978.14
2022-11-21T22:04:08.551Z,978.11
2022-11-21T22:05:08.432Z,978.06
2022-11-21T22:06:08.440Z,978.06
2022-11-21T22:07:08.488Z,978.06
2022-11-21T22:08:08.434Z,978.05
2022-11-21T22:09:08.410Z,978.06
2022-11-21T22:10:08.473Z,978.02
2022-11-21T22:11:08.385Z,978.00
2022-11-21T22:12:08.383Z,978.02
2022-11-21T22:13:08.341Z,978.00
2022-11-21T22:14:08.349Z,977.99
2022-11-21T22:15:08.432Z,977.99
2022-11-21T22:16:08.335Z,978.01
2022-11-21T22:17:08.290Z,977.97
2022-11-21T22:18:08.290Z,977.96
2022-11-21T22:19:08.316Z,977.99
2022-11-21T22:20:08.321Z,977.98
2022-11-21T22:21:08.282Z,977.98
2022-11-21T22:22:08.243Z,977.96
2022-11-21T22:23:08.245Z,977.95
2022-11-21T22:24:25.860Z,977.92
2022-11-21T22:25:09.242Z,977.93
2022-11-21T22:26:08.236Z,977.88
2022-11-21T22:27:08.200Z,977.90
2022-11-21T22:28:08.214Z,977.84
2022-11-21T22:29:08.167Z,977.81
2022-11-21T22:30:08.162Z,977.85
2022-11-21T22:31:08.152Z,977.83
2022-11-21T22:32:08.152Z,977.83
2022-11-21T22:33:08.116Z,977.79
2022-11-21T22:34:08.115Z,977.87
2022-11-21T22:35:08.115Z,977.90
2022-11-21T22:36:08.084Z,977.92
2022-11-21T22:37:08.101Z,977.94
2022-11-21T22:38:08.194Z,977.89
2022-11-21T22:39:08.063Z,977.90
2022-11-21T22:40:08.037Z,977.90
2022-11-21T22:41:08.023Z,977.91
2022-11-21T22:42:08.014Z,977.91
2022-11-21T22:43:08.000Z,977.82
2022-11-21T22:44:08.101Z,977.84
2022-11-21T22:45:07.987Z,977.85
2022-11-21T22:46:08.010Z,977.74
2022-11-21T22:47:07.955Z,977.77
2022-11-21T22:48:07.965Z,977.82
2022-11-21T22:49:07.935Z,977.85
2022-11-21T22:50:07.944Z,977.88
2022-11-21T22:51:07.912Z,977.89
2022-11-21T22:52:07.991Z,977.92
2022-11-21T22:53:07.898Z,977.92
2022-11-21T22:54:07.878Z,977.94
2022-11-21T22:55:07.862Z,977.90
2022-11-21T22:56:07.879Z,977.92
2022-11-21T22:57:07.848Z,977.87
2022-11-21T22:58:07.834Z,977.91
2022-11-21T22:59:07.821Z,977.91
2022-11-21T23:00:07.811Z,977.92
2022-11-21T23:01:07.856Z,977.93
2022-11-21T23:02:07.910Z,977.90
2022-11-21T23:03:07.936Z,977.90
2022-11-21T23:04:07.750Z,977.96
2022-11-21T23:05:07.777Z,977.95
2022-11-21T23:06:07.738Z,977.95
2022-11-21T23:07:07.876Z,977.94
2022-11-21T23:08:07.719Z,977.95
2022-11-21T23:09:07.714Z,977.96
2022-11-21T23:10:07.700Z,977.95
2022-11-21T23:11:07.681Z,977.96
2022-11-21T23:12:07.668Z,977.93
2022-11-21T23:13:07.697Z,977.89
2022-11-21T23:14:07.709Z,977.86
2022-11-21T23:15:07.670Z,977.87
2022-11-21T23:16:07.648Z,977.89
2022-11-21T23:17:07.612Z,977.83
2022-11-21T23:18:07.627Z,977.89
2022-11-21T23:19:07.578Z,977.74
2022-11-21T23:20:07.629Z,977.72
2022-11-21T23:21:07.614Z,977.68
2022-11-21T23:22:07.559Z,977.66
2022-11-21T23:23:07.539Z,977.65
2022-11-21T23:24:07.549Z,977.48
2022-11-21T23:25:07.512Z,977.53
2022-11-21T23:26:07.656Z,977.46
2022-11-21T23:27:07.489Z,977.40
2022-11-21T23:28:07.490Z,977.44
2022-11-21T23:29:09.021Z,977.45
2022-11-21T23:30:07.505Z,977.41
2022-11-21T23:31:07.519Z,977.45
2022-11-21T23:32:07.439Z,977.37
2022-11-21T23:33:07.420Z,977.39
2022-11-21T23:34:07.454Z,977.38
2022-11-21T23:35:07.443Z,977.44
2022-11-21T23:36:07.410Z,977.44
2022-11-21T23:37:07.415Z,977.36
2022-11-21T23:38:07.369Z,977.36
2022-11-21T23:39:07.364Z,977.39
2022-11-21T23:40:07.340Z,977.35
2022-11-21T23:41:07.360Z,977.34
2022-11-21T23:42:07.355Z,977.37
2022-11-21T23:43:07.316Z,977.33
2022-11-21T23:44:07.300Z,977.33
2022-11-21T23:45:07.290Z,977.40
2022-11-21T23:46:07.287Z,977.36
2022-11-21T23:47:07.310Z,977.35
2022-11-21T23:48:07.282Z,977.39
2022-11-21T23:49:07.238Z,977.33
2022-11-21T23:50:07.220Z,977.34
2022-11-21T23:51:07.225Z,977.36
2022-11-21T23:52:07.240Z,977.35
2022-11-21T23:53:07.193Z,977.29
2022-11-21T23:54:07.212Z,977.36
2022-11-21T23:55:07.176Z,977.36
2022-11-21T23:56:07.160Z,977.38
2022-11-21T23:57:07.161Z,977.42
2022-11-21T23:58:07.152Z,977.40
2022-11-21T23:59:07.146Z,977.37
